createdAt,value
2022-12-11T15:01:31.822Z,19.36
2022-12-11T15:04:03.303Z,19.11
2022-12-11T15:06:32.858Z,18.34
2022-12-11T15:09:10.341Z,18.45
2022-12-11T15:11:40.098Z,18.30
2022-12-11T15:14:09.805Z,18.57
2022-12-11T15:16:38.911Z,17.80
2022-12-11T15:19:06.215Z,17.85
2022-12-11T15:21:34.577Z,17.82
2022-12-11T15:24:02.953Z,18.31
2022-12-11T15:26:34.409Z,18.64
2022-12-11T15:29:01.818Z,17.06
2022-12-11T15:31:29.877Z,16.93
2022-12-11T15:33:58.634Z,17.19
2022-12-11T15:36:26.566Z,17.70
2022-12-11T15:38:54.409Z,17.14
2022-12-11T15:41:21.663Z,16.61
2022-12-11T15:43:51.731Z,16.64
2022-12-11T15:46:21.319Z,17.81
2022-12-11T15:48:48.825Z,17.45
2022-12-11T15:51:17.417Z,17.68
2022-12-11T15:53:44.649Z,17.99
2022-12-11T15:56:13.254Z,18.24
2022-12-11T15:58:40.444Z,18.17
2022-12-11T16:01:07.681Z,19.20
2022-12-11T16:03:35.016Z,19.64
2022-12-11T16:06:02.315Z,19.31
2022-12-11T16:08:31.243Z,18.89
2022-12-11T16:10:58.501Z,19.41
2022-12-11T16:13:25.841Z,21.07
2022-12-11T16:15:53.519Z,20.35
2022-12-11T16:18:23.683Z,20.33
2022-12-11T16:20:51.104Z,21.20
2022-12-11T16:23:18.398Z,21.32
2022-12-11T16:25:47.013Z,21.64
2022-12-11T16:28:15.276Z,22.47
2022-12-11T16:30:42.669Z,22.42
2022-12-11T16:33:12.723Z,22.48
2022-12-11T16:35:40.514Z,23.58
2022-12-11T16:38:07.826Z,22.89
2022-12-11T16:40:35.145Z,23.93
2022-12-11T16:43:04.175Z,23.94
2022-12-11T16:45:31.433Z,23.84
2022-12-11T16:47:58.638Z,25.39
2022-12-11T16:50:25.903Z,25.51
2022-12-11T16:52:53.191Z,25.51
2022-12-11T16:55:20.593Z,25.18
2022-12-11T16:57:47.792Z,25.88
2022-12-11T17:00:17.198Z,26.14
2022-12-11T17:02:44.456Z,25.29
2022-12-11T17:05:12.114Z,26.18
2022-12-11T17:07:39.605Z,26.94
2022-12-11T17:10:07.995Z,27.02
2022-12-11T17:12:35.217Z,26.66
2022-12-11T17:15:02.554Z,26.61
2022-12-11T17:17:31.252Z,26.91
2022-12-11T17:19:58.556Z,26.96
2022-12-11T17:22:25.878Z,27.16
2022-12-11T17:24:55.871Z,26.39
2022-12-11T17:27:23.087Z,26.92
2022-12-11T17:29:50.479Z,26.58
2022-12-11T17:32:17.798Z,26.55
2022-12-11T17:34:46.698Z,26.47
2022-12-11T17:37:13.964Z,25.34
2022-12-11T17:39:41.263Z,25.43
2022-12-11T17:42:08.571Z,25.37
2022-12-11T17:44:36.416Z,25.84
2022-12-11T17:47:10.585Z,25.40
2022-12-11T17:49:38.424Z,25.71
2022-12-11T17:52:07.190Z,25.31
2022-12-11T17:54:34.488Z,25.72
2022-12-11T17:57:01.727Z,26.34
2022-12-11T17:59:30.254Z,27.67
2022-12-11T18:01:57.541Z,26.75
2022-12-11T18:04:24.950Z,26.48
2022-12-11T18:06:52.245Z,26.45
2022-12-11T18:09:23.986Z,26.38
2022-12-11T18:11:51.496Z,27.79
2022-12-11T18:14:21.559Z,29.66
2022-12-11T18:16:48.950Z,28.81
2022-12-11T18:19:16.520Z,28.81
2022-12-11T18:21:44.309Z,45.26
2022-12-11T18:24:11.702Z,46.13
2022-12-11T18:26:40.828Z,60.07
2022-12-11T18:29:08.370Z,69.17
2022-12-11T18:31:41.978Z,59.20
2022-12-11T18:34:10.255Z,59.12
2022-12-11T18:36:37.598Z,68.35
2022-12-11T18:39:04.945Z,55.51
2022-12-11T18:41:32.274Z,41.65
2022-12-11T18:44:06.516Z,36.36
2022-12-11T18:46:36.596Z,32.94
2022-12-11T18:49:03.804Z,30.96
2022-12-11T18:51:30.995Z,32.49
2022-12-11T18:53:58.238Z,34.36
2022-12-11T18:56:25.428Z,33.74
2022-12-11T18:58:52.634Z,33.81
2022-12-11T19:01:22.128Z,33.36
2022-12-11T19:03:49.575Z,33.52
2022-12-11T19:06:17.556Z,34.84
2022-12-11T19:08:44.854Z,35.81
2022-12-11T19:11:14.424Z,35.59
2022-12-11T19:13:41.575Z,35.02
2022-12-11T19:16:11.083Z,35.65
2022-12-11T19:18:39.796Z,35.45
2022-12-11T19:21:09.440Z,35.38
2022-12-11T19:23:36.816Z,36.15
2022-12-11T19:26:04.113Z,35.94
2022-12-11T19:28:31.452Z,36.66
2022-12-11T19:30:58.759Z,36.90
2022-12-11T19:33:26.054Z,37.21
2022-12-11T19:36:02.237Z,36.87
2022-12-11T19:38:29.536Z,37.56
2022-12-11T19:40:56.814Z,36.54
2022-12-11T19:43:23.973Z,36.60
2022-12-11T19:45:51.193Z,38.30
2022-12-11T19:48:18.377Z,38.01
2022-12-11T19:50:45.595Z,40.51
2022-12-11T19:53:14.311Z,37.90
2022-12-11T19:55:41.485Z,35.49
2022-12-11T19:58:08.794Z,36.14
2022-12-11T20:00:37.697Z,34.69
2022-12-11T20:03:05.023Z,33.98
2022-12-11T20:05:32.253Z,33.89
2022-12-11T20:08:43.076Z,33.69
2022-12-11T20:12:13.204Z,33.94
2022-12-11T20:14:22.756Z,33.66
2022-12-11T20:19:53.218Z,34.66
2022-12-11T20:22:20.457Z,34.73
2022-12-11T20:24:56.314Z,34.64
2022-12-11T20:29:23.983Z,35.64
2022-12-11T20:30:46.754Z,36.50
2022-12-11T20:33:19.155Z,35.91
2022-12-11T20:35:46.433Z,35.75
2022-12-11T20:38:13.755Z,36.55
2022-12-11T20:41:05.978Z,36.95
2022-12-11T20:43:34.634Z,35.90
2022-12-11T20:46:11.265Z,36.53
2022-12-11T20:48:38.683Z,37.53
2022-12-11T20:51:18.610Z,37.12
2022-12-11T20:53:49.934Z,37.02
2022-12-11T20:56:20.015Z,38.05
2022-12-11T20:59:07.273Z,37.15
2022-12-11T21:01:34.534Z,37.45
2022-12-11T21:04:13.874Z,37.44
2022-12-11T21:06:43.793Z,37.94
2022-12-11T21:09:12.534Z,38.36
2022-12-11T21:11:41.476Z,40.14
2022-12-11T21:14:13.153Z,40.40
2022-12-11T21:16:52.965Z,38.07
2022-12-11T21:19:38.293Z,38.41
2022-12-11T21:22:24.875Z,37.53
2022-12-11T21:24:57.194Z,38.85
2022-12-11T21:27:24.434Z,38.62
2022-12-11T21:29:54.954Z,38.02
2022-12-11T21:32:22.117Z,39.13
2022-12-11T21:34:50.325Z,38.15
2022-12-11T21:37:17.514Z,38.45
2022-12-11T21:39:44.714Z,39.00
2022-12-11T21:42:11.877Z,38.48
